sensor_id;sensor_type;location;lat;lon;timestamp;P1;durP1;ratioP1;P2;durP2;ratioP2
4986;SDS011;12674;51.500;7.552;2023-04-19T00:00:03;22.70;;;13.13;;
4986;SDS011;12674;51.500;7.552;2023-04-19T00:02:09;16.67;;;14.50;;
4986;SDS011;12674;51.500;7.552;2023-04-19T00:04:17;17.33;;;13.70;;
4986;SDS011;12674;51.500;7.552;2023-04-19T00:06:21;18.10;;;14.63;;
4986;SDS011;12674;51.500;7.552;2023-04-19T00:08:25;22.37;;;14.00;;
4986;SDS011;12674;51.500;7.552;2023-04-19T00:10:28;17.83;;;13.27;;
4986;SDS011;12674;51.500;7.552;2023-04-19T00:12:31;19.70;;;14.33;;
4986;SDS011;12674;51.500;7.552;2023-04-19T00:14:35;22.97;;;15.60;;
4986;SDS011;12674;51.500;7.552;2023-04-19T00:16:38;17.57;;;14.50;;
4986;SDS011;12674;51.500;7.552;2023-04-19T00:18:41;18.90;;;13.57;;
4986;SDS011;12674;51.500;7.552;2023-04-19T00:20:44;16.53;;;14.20;;
4986;SDS011;12674;51.500;7.552;2023-04-19T00:22:49;21.60;;;14.07;;
4986;SDS011;12674;51.500;7.552;2023-04-19T00:24:52;18.20;;;14.47;;
4986;SDS011;12674;51.500;7.552;2023-04-19T00:26:55;16.50;;;13.50;;
4986;SDS011;12674;51.500;7.552;2023-04-19T00:28:59;16.20;;;14.50;;
4986;SDS011;12674;51.500;7.552;2023-04-19T00:31:03;16.30;;;13.30;;
4986;SDS011;12674;51.500;7.552;2023-04-19T00:33:06;17.30;;;13.90;;
4986;SDS011;12674;51.500;7.552;2023-04-19T00:35:13;16.97;;;13.77;;
4986;SDS011;12674;51.500;7.552;2023-04-19T00:37:16;18.33;;;13.80;;
4986;SDS011;12674;51.500;7.552;2023-04-19T00:39:19;17.67;;;13.20;;
4986;SDS011;12674;51.500;7.552;2023-04-19T00:41:22;18.13;;;13.73;;
4986;SDS011;12674;51.500;7.552;2023-04-19T00:43:24;16.90;;;14.20;;
4986;SDS011;12674;51.500;7.552;2023-04-19T00:45:28;20.67;;;14.17;;
4986;SDS011;12674;51.500;7.552;2023-04-19T00:47:32;19.43;;;14.20;;
4986;SDS011;12674;51.500;7.552;2023-04-19T00:49:35;18.30;;;13.50;;
4986;SDS011;12674;51.500;7.552;2023-04-19T00:51:38;21.83;;;14.10;;
4986;SDS011;12674;51.500;7.552;2023-04-19T00:53:41;17.23;;;13.03;;
4986;SDS011;12674;51.500;7.552;2023-04-19T00:55:44;18.00;;;14.13;;
4986;SDS011;12674;51.500;7.552;2023-04-19T00:57:48;15.27;;;13.63;;
4986;SDS011;12674;51.500;7.552;2023-04-19T00:59:52;15.00;;;13.10;;
4986;SDS011;12674;51.500;7.552;2023-04-19T01:01:56;18.77;;;13.07;;
4986;SDS011;12674;51.500;7.552;2023-04-19T01:04:03;19.00;;;13.23;;
4986;SDS011;12674;51.500;7.552;2023-04-19T01:06:06;16.57;;;13.33;;
4986;SDS011;12674;51.500;7.552;2023-04-19T01:08:09;19.90;;;13.20;;
4986;SDS011;12674;51.500;7.552;2023-04-19T01:10:12;19.03;;;13.60;;
4986;SDS011;12674;51.500;7.552;2023-04-19T01:12:15;18.03;;;13.23;;
4986;SDS011;12674;51.500;7.552;2023-04-19T01:14:19;18.93;;;13.30;;
4986;SDS011;12674;51.500;7.552;2023-04-19T01:16:21;16.60;;;12.47;;
4986;SDS011;12674;51.500;7.552;2023-04-19T01:18:24;17.57;;;13.77;;
4986;SDS011;12674;51.500;7.552;2023-04-19T01:20:34;17.13;;;11.40;;
4986;SDS011;12674;51.500;7.552;2023-04-19T01:22:39;13.80;;;11.07;;
4986;SDS011;12674;51.500;7.552;2023-04-19T01:24:42;15.80;;;10.93;;
4986;SDS011;12674;51.500;7.552;2023-04-19T01:26:45;16.27;;;11.10;;
4986;SDS011;12674;51.500;7.552;2023-04-19T01:28:48;17.53;;;10.80;;
4986;SDS011;12674;51.500;7.552;2023-04-19T01:30:51;10.80;;;9.70;;
4986;SDS011;12674;51.500;7.552;2023-04-19T01:32:54;14.23;;;9.70;;
4986;SDS011;12674;51.500;7.552;2023-04-19T01:34:57;12.97;;;9.00;;
4986;SDS011;12674;51.500;7.552;2023-04-19T01:37:02;11.23;;;9.90;;
4986;SDS011;12674;51.500;7.552;2023-04-19T01:39:08;15.23;;;9.60;;
4986;SDS011;12674;51.500;7.552;2023-04-19T01:41:13;10.77;;;8.83;;
4986;SDS011;12674;51.500;7.552;2023-04-19T01:43:16;10.87;;;8.37;;
4986;SDS011;12674;51.500;7.552;2023-04-19T01:45:19;9.10;;;8.20;;
4986;SDS011;12674;51.500;7.552;2023-04-19T01:47:24;7.87;;;7.07;;
4986;SDS011;12674;51.500;7.552;2023-04-19T01:49:27;8.77;;;7.83;;
4986;SDS011;12674;51.500;7.552;2023-04-19T01:51:30;8.60;;;7.70;;
4986;SDS011;12674;51.500;7.552;2023-04-19T01:53:34;11.23;;;7.40;;
4986;SDS011;12674;51.500;7.552;2023-04-19T01:55:39;8.73;;;7.83;;
4986;SDS011;12674;51.500;7.552;2023-04-19T01:57:42;8.27;;;7.00;;
4986;SDS011;12674;51.500;7.552;2023-04-19T01:59:45;11.20;;;6.60;;
4986;SDS011;12674;51.500;7.552;2023-04-19T02:01:47;14.10;;;6.97;;
4986;SDS011;12674;51.500;7.552;2023-04-19T02:03:51;8.00;;;7.20;;
4986;SDS011;12674;51.500;7.552;2023-04-19T02:05:54;6.70;;;6.00;;
4986;SDS011;12674;51.500;7.552;2023-04-19T02:07:57;6.93;;;6.23;;
4986;SDS011;12674;51.500;7.552;2023-04-19T02:10:04;11.40;;;7.00;;
4986;SDS011;12674;51.500;7.552;2023-04-19T02:12:12;8.87;;;5.70;;
4986;SDS011;12674;51.500;7.552;2023-04-19T02:14:17;5.70;;;5.03;;
4986;SDS011;12674;51.500;7.552;2023-04-19T02:16:20;7.60;;;5.93;;
4986;SDS011;12674;51.500;7.552;2023-04-19T02:18:24;5.97;;;4.90;;
4986;SDS011;12674;51.500;7.552;2023-04-19T02:20:27;5.97;;;4.80;;
4986;SDS011;12674;51.500;7.552;2023-04-19T02:22:30;7.47;;;5.10;;
4986;SDS011;12674;51.500;7.552;2023-04-19T02:24:32;7.90;;;5.80;;
4986;SDS011;12674;51.500;7.552;2023-04-19T02:26:35;7.40;;;5.53;;
4986;SDS011;12674;51.500;7.552;2023-04-19T02:28:40;5.87;;;5.20;;
4986;SDS011;12674;51.500;7.552;2023-04-19T02:30:43;8.50;;;5.40;;
4986;SDS011;12674;51.500;7.552;2023-04-19T02:32:46;5.57;;;4.30;;
4986;SDS011;12674;51.500;7.552;2023-04-19T02:34:49;7.10;;;5.50;;
4986;SDS011;12674;51.500;7.552;2023-04-19T02:36:52;7.10;;;5.20;;
4986;SDS011;12674;51.500;7.552;2023-04-19T02:38:55;5.60;;;5.10;;
4986;SDS011;12674;51.500;7.552;2023-04-19T02:40:59;5.30;;;4.40;;
4986;SDS011;12674;51.500;7.552;2023-04-19T02:43:04;6.83;;;4.40;;
4986;SDS011;12674;51.500;7.552;2023-04-19T02:45:09;5.10;;;4.50;;
4986;SDS011;12674;51.500;7.552;2023-04-19T02:47:12;6.90;;;4.67;;
4986;SDS011;12674;51.500;7.552;2023-04-19T02:49:15;7.50;;;4.47;;
4986;SDS011;12674;51.500;7.552;2023-04-19T02:51:17;4.77;;;4.23;;
4986;SDS011;12674;51.500;7.552;2023-04-19T02:53:20;6.20;;;4.53;;
4986;SDS011;12674;51.500;7.552;2023-04-19T02:55:24;6.30;;;4.70;;
4986;SDS011;12674;51.500;7.552;2023-04-19T02:57:38;4.83;;;4.40;;
4986;SDS011;12674;51.500;7.552;2023-04-19T02:59:43;5.90;;;4.53;;
4986;SDS011;12674;51.500;7.552;2023-04-19T03:01:47;11.17;;;4.50;;
4986;SDS011;12674;51.500;7.552;2023-04-19T03:03:51;5.10;;;4.60;;
4986;SDS011;12674;51.500;7.552;2023-04-19T03:05:54;7.50;;;4.90;;
4986;SDS011;12674;51.500;7.552;2023-04-19T03:07:57;6.33;;;4.50;;
4986;SDS011;12674;51.500;7.552;2023-04-19T03:10:00;5.20;;;4.70;;
4986;SDS011;12674;51.500;7.552;2023-04-19T03:12:05;9.33;;;4.43;;
4986;SDS011;12674;51.500;7.552;2023-04-19T03:14:09;6.30;;;4.20;;
4986;SDS011;12674;51.500;7.552;2023-04-19T03:16:12;7.70;;;4.53;;
4986;SDS011;12674;51.500;7.552;2023-04-19T03:18:17;6.23;;;4.57;;
4986;SDS011;12674;51.500;7.552;2023-04-19T03:20:21;4.97;;;4.47;;
4986;SDS011;12674;51.500;7.552;2023-04-19T03:22:24;5.70;;;4.80;;
4986;SDS011;12674;51.500;7.552;2023-04-19T03:24:27;4.90;;;4.17;;
4986;SDS011;12674;51.500;7.552;2023-04-19T03:26:32;7.77;;;4.13;;
4986;SDS011;12674;51.500;7.552;2023-04-19T03:28:35;5.13;;;4.03;;
4986;SDS011;12674;51.500;7.552;2023-04-19T03:30:57;6.53;;;4.80;;
4986;SDS011;12674;51.500;7.552;2023-04-19T03:33:00;4.87;;;3.70;;
4986;SDS011;12674;51.500;7.552;2023-04-19T03:35:05;4.70;;;4.00;;
4986;SDS011;12674;51.500;7.552;2023-04-19T03:37:08;8.97;;;4.20;;
4986;SDS011;12674;51.500;7.552;2023-04-19T03:39:11;10.83;;;4.23;;
4986;SDS011;12674;51.500;7.552;2023-04-19T03:41:17;4.70;;;4.17;;
4986;SDS011;12674;51.500;7.552;2023-04-19T03:43:22;5.00;;;4.00;;
4986;SDS011;12674;51.500;7.552;2023-04-19T03:45:25;6.43;;;4.30;;
4986;SDS011;12674;51.500;7.552;2023-04-19T03:47:28;6.17;;;4.03;;
4986;SDS011;12674;51.500;7.552;2023-04-19T03:49:32;4.93;;;4.10;;
4986;SDS011;12674;51.500;7.552;2023-04-19T03:51:39;4.53;;;4.10;;
4986;SDS011;12674;51.500;7.552;2023-04-19T03:53:42;4.30;;;3.90;;
4986;SDS011;12674;51.500;7.552;2023-04-19T03:55:45;7.83;;;4.27;;
4986;SDS011;12674;51.500;7.552;2023-04-19T03:57:48;5.93;;;4.10;;
4986;SDS011;12674;51.500;7.552;2023-04-19T04:00:03;4.50;;;4.10;;
4986;SDS011;12674;51.500;7.552;2023-04-19T04:02:14;4.47;;;4.07;;
4986;SDS011;12674;51.500;7.552;2023-04-19T04:04:17;6.93;;;3.97;;
4986;SDS011;12674;51.500;7.552;2023-04-19T04:06:20;5.17;;;3.87;;
4986;SDS011;12674;51.500;7.552;2023-04-19T04:08:25;7.80;;;4.10;;
4986;SDS011;12674;51.500;7.552;2023-04-19T04:10:28;4.20;;;3.80;;
4986;SDS011;12674;51.500;7.552;2023-04-19T04:12:31;4.60;;;4.20;;
4986;SDS011;12674;51.500;7.552;2023-04-19T04:14:35;7.50;;;4.27;;
4986;SDS011;12674;51.500;7.552;2023-04-19T04:16:39;5.70;;;4.07;;
4986;SDS011;12674;51.500;7.552;2023-04-19T04:18:42;6.63;;;4.30;;
4986;SDS011;12674;51.500;7.552;2023-04-19T04:20:48;5.40;;;4.20;;
4986;SDS011;12674;51.500;7.552;2023-04-19T04:22:51;5.50;;;4.60;;
4986;SDS011;12674;51.500;7.552;2023-04-19T04:24:56;4.30;;;3.90;;
4986;SDS011;12674;51.500;7.552;2023-04-19T04:27:07;4.60;;;4.13;;
4986;SDS011;12674;51.500;7.552;2023-04-19T04:29:13;5.77;;;4.17;;
4986;SDS011;12674;51.500;7.552;2023-04-19T04:31:18;4.67;;;4.27;;
4986;SDS011;12674;51.500;7.552;2023-04-19T04:33:24;9.63;;;5.10;;
4986;SDS011;12674;51.500;7.552;2023-04-19T04:35:30;5.67;;;4.27;;
4986;SDS011;12674;51.500;7.552;2023-04-19T04:37:41;8.53;;;4.47;;
4986;SDS011;12674;51.500;7.552;2023-04-19T04:39:43;7.00;;;5.07;;
4986;SDS011;12674;51.500;7.552;2023-04-19T04:41:48;6.03;;;4.60;;
4986;SDS011;12674;51.500;7.552;2023-04-19T04:43:53;6.57;;;5.13;;
4986;SDS011;12674;51.500;7.552;2023-04-19T04:46:13;8.00;;;5.30;;
4986;SDS011;12674;51.500;7.552;2023-04-19T04:48:16;5.43;;;4.90;;
4986;SDS011;12674;51.500;7.552;2023-04-19T04:50:19;6.60;;;5.20;;
4986;SDS011;12674;51.500;7.552;2023-04-19T04:52:23;5.63;;;5.03;;
4986;SDS011;12674;51.500;7.552;2023-04-19T04:54:52;5.83;;;5.23;;
4986;SDS011;12674;51.500;7.552;2023-04-19T04:57:03;6.23;;;5.00;;
4986;SDS011;12674;51.500;7.552;2023-04-19T04:59:06;7.57;;;5.47;;
4986;SDS011;12674;51.500;7.552;2023-04-19T05:01:12;7.67;;;5.63;;
4986;SDS011;12674;51.500;7.552;2023-04-19T05:03:21;6.10;;;5.30;;
4986;SDS011;12674;51.500;7.552;2023-04-19T05:05:28;6.00;;;4.70;;
4986;SDS011;12674;51.500;7.552;2023-04-19T05:07:31;7.43;;;5.33;;
4986;SDS011;12674;51.500;7.552;2023-04-19T05:09:36;7.80;;;5.13;;
4986;SDS011;12674;51.500;7.552;2023-04-19T05:11:39;10.47;;;6.17;;
4986;SDS011;12674;51.500;7.552;2023-04-19T05:13:44;12.60;;;5.57;;
4986;SDS011;12674;51.500;7.552;2023-04-19T05:15:47;13.27;;;6.07;;
4986;SDS011;12674;51.500;7.552;2023-04-19T05:17:50;6.20;;;5.50;;
4986;SDS011;12674;51.500;7.552;2023-04-19T05:19:55;7.63;;;6.10;;
4986;SDS011;12674;51.500;7.552;2023-04-19T05:21:58;7.60;;;5.70;;
4986;SDS011;12674;51.500;7.552;2023-04-19T05:24:01;11.33;;;5.13;;
4986;SDS011;12674;51.500;7.552;2023-04-19T05:26:06;6.87;;;5.53;;
4986;SDS011;12674;51.500;7.552;2023-04-19T05:28:13;7.33;;;5.07;;
4986;SDS011;12674;51.500;7.552;2023-04-19T05:30:30;6.67;;;5.00;;
4986;SDS011;12674;51.500;7.552;2023-04-19T05:32:34;8.90;;;5.20;;
4986;SDS011;12674;51.500;7.552;2023-04-19T05:34:38;5.40;;;4.47;;
4986;SDS011;12674;51.500;7.552;2023-04-19T05:36:45;7.43;;;5.20;;
4986;SDS011;12674;51.500;7.552;2023-04-19T05:38:48;7.83;;;5.37;;
4986;SDS011;12674;51.500;7.552;2023-04-19T05:40:51;6.50;;;5.00;;
4986;SDS011;12674;51.500;7.552;2023-04-19T05:42:54;5.30;;;4.80;;
4986;SDS011;12674;51.500;7.552;2023-04-19T05:44:59;7.63;;;4.80;;
4986;SDS011;12674;51.500;7.552;2023-04-19T05:47:07;14.50;;;5.40;;
4986;SDS011;12674;51.500;7.552;2023-04-19T05:49:39;6.40;;;4.57;;
4986;SDS011;12674;51.500;7.552;2023-04-19T05:51:54;7.17;;;4.83;;
4986;SDS011;12674;51.500;7.552;2023-04-19T05:54:04;8.00;;;4.93;;
4986;SDS011;12674;51.500;7.552;2023-04-19T05:56:08;8.50;;;5.03;;
4986;SDS011;12674;51.500;7.552;2023-04-19T05:58:10;7.80;;;4.43;;
4986;SDS011;12674;51.500;7.552;2023-04-19T06:00:14;8.73;;;5.27;;
4986;SDS011;12674;51.500;7.552;2023-04-19T06:02:27;21.33;;;7.70;;
4986;SDS011;12674;51.500;7.552;2023-04-19T06:04:30;24.63;;;13.17;;
4986;SDS011;12674;51.500;7.552;2023-04-19T06:06:33;7.33;;;4.87;;
4986;SDS011;12674;51.500;7.552;2023-04-19T06:08:39;12.20;;;4.40;;
4986;SDS011;12674;51.500;7.552;2023-04-19T06:10:44;7.38;;;4.78;;
4986;SDS011;12674;51.500;7.552;2023-04-19T06:12:57;9.57;;;5.97;;
4986;SDS011;12674;51.500;7.552;2023-04-19T06:15:01;5.78;;;4.40;;
4986;SDS011;12674;51.500;7.552;2023-04-19T06:17:04;6.72;;;4.05;;
4986;SDS011;12674;51.500;7.552;2023-04-19T06:19:08;6.60;;;4.18;;
4986;SDS011;12674;51.500;7.552;2023-04-19T06:21:11;11.98;;;3.72;;
4986;SDS011;12674;51.500;7.552;2023-04-19T06:23:14;5.70;;;4.03;;
4986;SDS011;12674;51.500;7.552;2023-04-19T06:25:19;6.22;;;4.10;;
4986;SDS011;12674;51.500;7.552;2023-04-19T06:27:22;56.95;;;5.88;;
4986;SDS011;12674;51.500;7.552;2023-04-19T06:29:25;41.50;;;6.28;;
4986;SDS011;12674;51.500;7.552;2023-04-19T06:31:28;46.45;;;7.30;;
4986;SDS011;12674;51.500;7.552;2023-04-19T06:33:31;11.57;;;4.03;;
4986;SDS011;12674;51.500;7.552;2023-04-19T06:35:36;5.47;;;4.00;;
4986;SDS011;12674;51.500;7.552;2023-04-19T06:37:39;16.63;;;4.40;;
4986;SDS011;12674;51.500;7.552;2023-04-19T06:39:42;9.75;;;3.85;;
4986;SDS011;12674;51.500;7.552;2023-04-19T06:41:45;16.67;;;4.47;;
4986;SDS011;12674;51.500;7.552;2023-04-19T06:43:50;62.50;;;7.78;;
4986;SDS011;12674;51.500;7.552;2023-04-19T06:45:56;18.05;;;5.43;;
4986;SDS011;12674;51.500;7.552;2023-04-19T06:48:00;24.60;;;5.97;;
4986;SDS011;12674;51.500;7.552;2023-04-19T06:50:05;8.80;;;3.67;;
4986;SDS011;12674;51.500;7.552;2023-04-19T06:52:10;20.08;;;4.57;;
4986;SDS011;12674;51.500;7.552;2023-04-19T06:54:13;10.75;;;4.32;;
4986;SDS011;12674;51.500;7.552;2023-04-19T06:56:17;20.33;;;4.55;;
4986;SDS011;12674;51.500;7.552;2023-04-19T06:58:20;16.42;;;3.40;;
4986;SDS011;12674;51.500;7.552;2023-04-19T07:00:22;12.05;;;3.90;;
4986;SDS011;12674;51.500;7.552;2023-04-19T07:02:25;15.50;;;3.53;;
4986;SDS011;12674;51.500;7.552;2023-04-19T07:04:29;8.13;;;3.90;;
4986;SDS011;12674;51.500;7.552;2023-04-19T07:06:32;13.88;;;3.92;;
4986;SDS011;12674;51.500;7.552;2023-04-19T07:08:36;15.57;;;4.22;;
4986;SDS011;12674;51.500;7.552;2023-04-19T07:10:50;35.15;;;4.25;;
4986;SDS011;12674;51.500;7.552;2023-04-19T07:12:53;16.40;;;3.72;;
4986;SDS011;12674;51.500;7.552;2023-04-19T07:14:57;13.52;;;3.42;;
4986;SDS011;12674;51.500;7.552;2023-04-19T07:17:02;12.02;;;3.28;;
4986;SDS011;12674;51.500;7.552;2023-04-19T07:19:05;30.20;;;3.80;;
4986;SDS011;12674;51.500;7.552;2023-04-19T07:21:08;41.88;;;4.78;;
4986;SDS011;12674;51.500;7.552;2023-04-19T07:23:11;9.32;;;2.88;;
4986;SDS011;12674;51.500;7.552;2023-04-19T07:25:15;14.27;;;3.10;;
4986;SDS011;12674;51.500;7.552;2023-04-19T07:27:19;6.82;;;3.50;;
4986;SDS011;12674;51.500;7.552;2023-04-19T07:29:23;8.98;;;3.25;;
4986;SDS011;12674;51.500;7.552;2023-04-19T07:31:26;7.40;;;3.33;;
4986;SDS011;12674;51.500;7.552;2023-04-19T07:33:29;14.82;;;3.90;;
4986;SDS011;12674;51.500;7.552;2023-04-19T07:35:33;19.00;;;3.50;;
4986;SDS011;12674;51.500;7.552;2023-04-19T07:37:37;6.40;;;2.60;;
4986;SDS011;12674;51.500;7.552;2023-04-19T07:39:39;17.65;;;4.32;;
4986;SDS011;12674;51.500;7.552;2023-04-19T07:41:44;9.07;;;3.05;;
4986;SDS011;12674;51.500;7.552;2023-04-19T07:43:47;6.50;;;2.80;;
4986;SDS011;12674;51.500;7.552;2023-04-19T07:45:50;4.78;;;2.72;;
4986;SDS011;12674;51.500;7.552;2023-04-19T07:47:53;4.95;;;2.78;;
4986;SDS011;12674;51.500;7.552;2023-04-19T07:49:56;5.47;;;2.80;;
4986;SDS011;12674;51.500;7.552;2023-04-19T07:52:00;7.70;;;3.22;;
4986;SDS011;12674;51.500;7.552;2023-04-19T07:54:03;6.57;;;3.22;;
4986;SDS011;12674;51.500;7.552;2023-04-19T07:56:06;22.92;;;3.50;;
4986;SDS011;12674;51.500;7.552;2023-04-19T07:58:14;47.35;;;5.38;;
4986;SDS011;12674;51.500;7.552;2023-04-19T08:00:17;24.15;;;4.78;;
4986;SDS011;12674;51.500;7.552;2023-04-19T08:02:22;15.15;;;3.40;;
4986;SDS011;12674;51.500;7.552;2023-04-19T08:04:32;18.40;;;3.30;;
4986;SDS011;12674;51.500;7.552;2023-04-19T08:06:36;12.90;;;2.83;;
4986;SDS011;12674;51.500;7.552;2023-04-19T08:08:41;22.92;;;3.97;;
4986;SDS011;12674;51.500;7.552;2023-04-19T08:10:44;14.90;;;2.45;;
4986;SDS011;12674;51.500;7.552;2023-04-19T08:12:48;22.88;;;3.75;;
4986;SDS011;12674;51.500;7.552;2023-04-19T08:14:59;47.65;;;3.45;;
4986;SDS011;12674;51.500;7.552;2023-04-19T08:17:23;17.33;;;3.38;;
4986;SDS011;12674;51.500;7.552;2023-04-19T08:19:35;18.55;;;3.05;;
4986;SDS011;12674;51.500;7.552;2023-04-19T08:21:39;33.35;;;3.65;;
4986;SDS011;12674;51.500;7.552;2023-04-19T08:23:42;14.52;;;2.75;;
4986;SDS011;12674;51.500;7.552;2023-04-19T08:25:49;12.10;;;3.53;;
4986;SDS011;12674;51.500;7.552;2023-04-19T08:28:00;9.95;;;2.95;;
4986;SDS011;12674;51.500;7.552;2023-04-19T08:30:06;6.57;;;2.60;;
4986;SDS011;12674;51.500;7.552;2023-04-19T08:32:11;11.27;;;3.95;;
4986;SDS011;12674;51.500;7.552;2023-04-19T08:34:14;6.70;;;2.35;;
4986;SDS011;12674;51.500;7.552;2023-04-19T08:36:17;87.00;;;6.28;;
4986;SDS011;12674;51.500;7.552;2023-04-19T08:38:33;31.88;;;5.22;;
4986;SDS011;12674;51.500;7.552;2023-04-19T08:40:39;43.13;;;5.55;;
4986;SDS011;12674;51.500;7.552;2023-04-19T08:42:43;12.35;;;2.83;;
4986;SDS011;12674;51.500;7.552;2023-04-19T08:44:46;18.52;;;2.88;;
4986;SDS011;12674;51.500;7.552;2023-04-19T08:47:11;22.48;;;2.95;;
4986;SDS011;12674;51.500;7.552;2023-04-19T08:49:31;3.95;;;2.13;;
4986;SDS011;12674;51.500;7.552;2023-04-19T08:51:36;25.75;;;3.70;;
4986;SDS011;12674;51.500;7.552;2023-04-19T08:53:40;49.85;;;4.63;;
4986;SDS011;12674;51.500;7.552;2023-04-19T08:55:43;16.10;;;3.05;;
4986;SDS011;12674;51.500;7.552;2023-04-19T08:58:06;45.95;;;3.60;;
4986;SDS011;12674;51.500;7.552;2023-04-19T09:00:27;11.90;;;2.75;;
4986;SDS011;12674;51.500;7.552;2023-04-19T09:02:40;12.05;;;2.60;;
4986;SDS011;12674;51.500;7.552;2023-04-19T09:04:48;5.03;;;2.13;;
4986;SDS011;12674;51.500;7.552;2023-04-19T09:06:52;30.88;;;3.20;;
4986;SDS011;12674;51.500;7.552;2023-04-19T09:09:02;13.70;;;2.33;;
4986;SDS011;12674;51.500;7.552;2023-04-19T09:11:35;18.45;;;2.42;;
4986;SDS011;12674;51.500;7.552;2023-04-19T09:13:39;5.53;;;1.98;;
4986;SDS011;12674;51.500;7.552;2023-04-19T09:15:44;6.07;;;2.10;;
4986;SDS011;12674;51.500;7.552;2023-04-19T09:18:02;10.07;;;3.03;;
4986;SDS011;12674;51.500;7.552;2023-04-19T09:20:06;14.43;;;2.88;;
4986;SDS011;12674;51.500;7.552;2023-04-19T09:22:11;11.93;;;3.10;;
4986;SDS011;12674;51.500;7.552;2023-04-19T09:24:14;29.10;;;4.00;;
4986;SDS011;12674;51.500;7.552;2023-04-19T09:26:17;17.67;;;5.07;;
4986;SDS011;12674;51.500;7.552;2023-04-19T09:28:24;3.38;;;2.60;;
4986;SDS011;12674;51.500;7.552;2023-04-19T09:30:27;9.93;;;2.88;;
4986;SDS011;12674;51.500;7.552;2023-04-19T09:32:45;7.80;;;2.28;;
4986;SDS011;12674;51.500;7.552;2023-04-19T09:34:52;7.88;;;2.53;;
4986;SDS011;12674;51.500;7.552;2023-04-19T09:36:56;5.55;;;2.20;;
4986;SDS011;12674;51.500;7.552;2023-04-19T09:39:18;18.13;;;2.72;;
4986;SDS011;12674;51.500;7.552;2023-04-19T09:41:30;21.92;;;3.00;;
4986;SDS011;12674;51.500;7.552;2023-04-19T09:43:33;12.55;;;2.97;;
4986;SDS011;12674;51.500;7.552;2023-04-19T09:45:56;20.55;;;3.92;;
4986;SDS011;12674;51.500;7.552;2023-04-19T09:48:00;11.32;;;3.10;;
4986;SDS011;12674;51.500;7.552;2023-04-19T09:50:07;18.90;;;2.97;;
4986;SDS011;12674;51.500;7.552;2023-04-19T09:52:15;31.77;;;3.70;;
4986;SDS011;12674;51.500;7.552;2023-04-19T09:54:18;15.30;;;2.60;;
4986;SDS011;12674;51.500;7.552;2023-04-19T09:56:22;21.52;;;2.95;;
4986;SDS011;12674;51.500;7.552;2023-04-19T09:58:25;18.85;;;3.42;;
4986;SDS011;12674;51.500;7.552;2023-04-19T10:00:42;4.80;;;2.17;;
4986;SDS011;12674;51.500;7.552;2023-04-19T10:02:53;5.80;;;2.10;;
4986;SDS011;12674;51.500;7.552;2023-04-19T10:04:59;4.55;;;2.60;;
4986;SDS011;12674;51.500;7.552;2023-04-19T10:07:22;5.00;;;2.50;;
4986;SDS011;12674;51.500;7.552;2023-04-19T10:09:31;3.85;;;2.05;;
4986;SDS011;12674;51.500;7.552;2023-04-19T10:11:52;3.28;;;2.50;;
4986;SDS011;12674;51.500;7.552;2023-04-19T10:14:11;6.55;;;2.63;;
4986;SDS011;12674;51.500;7.552;2023-04-19T10:16:16;5.15;;;2.80;;
4986;SDS011;12674;51.500;7.552;2023-04-19T10:18:21;4.97;;;2.13;;
4986;SDS011;12674;51.500;7.552;2023-04-19T10:20:26;7.72;;;2.80;;
4986;SDS011;12674;51.500;7.552;2023-04-19T10:22:35;7.63;;;2.70;;
4986;SDS011;12674;51.500;7.552;2023-04-19T10:24:39;4.05;;;2.70;;
4986;SDS011;12674;51.500;7.552;2023-04-19T10:29:12;11.30;;;2.38;;
4986;SDS011;12674;51.500;7.552;2023-04-19T10:31:18;2.20;;;2.00;;
4986;SDS011;12674;51.500;7.552;2023-04-19T10:33:24;9.10;;;2.85;;
4986;SDS011;12674;51.500;7.552;2023-04-19T10:35:33;3.38;;;2.20;;
4986;SDS011;12674;51.500;7.552;2023-04-19T10:37:39;11.45;;;2.30;;
4986;SDS011;12674;51.500;7.552;2023-04-19T10:39:43;4.75;;;2.00;;
4986;SDS011;12674;51.500;7.552;2023-04-19T10:41:56;10.70;;;2.63;;
4986;SDS011;12674;51.500;7.552;2023-04-19T10:44:11;17.02;;;2.78;;
4986;SDS011;12674;51.500;7.552;2023-04-19T10:46:15;48.17;;;4.43;;
4986;SDS011;12674;51.500;7.552;2023-04-19T10:48:33;29.55;;;3.47;;
4986;SDS011;12674;51.500;7.552;2023-04-19T10:53:12;120.57;;;8.25;;
4986;SDS011;12674;51.500;7.552;2023-04-19T10:55:48;23.60;;;3.40;;
4986;SDS011;12674;51.500;7.552;2023-04-19T10:58:01;19.73;;;3.20;;
4986;SDS011;12674;51.500;7.552;2023-04-19T11:00:18;18.77;;;2.90;;
4986;SDS011;12674;51.500;7.552;2023-04-19T11:02:28;24.52;;;4.90;;
4986;SDS011;12674;51.500;7.552;2023-04-19T11:04:56;33.80;;;4.10;;
4986;SDS011;12674;51.500;7.552;2023-04-19T11:07:03;38.47;;;3.72;;
4986;SDS011;12674;51.500;7.552;2023-04-19T11:09:09;24.95;;;4.45;;
4986;SDS011;12674;51.500;7.552;2023-04-19T11:11:12;11.93;;;2.50;;
4986;SDS011;12674;51.500;7.552;2023-04-19T11:13:16;3.03;;;2.35;;
4986;SDS011;12674;51.500;7.552;2023-04-19T11:15:20;21.90;;;3.50;;
4986;SDS011;12674;51.500;7.552;2023-04-19T11:17:24;3.85;;;2.70;;
4986;SDS011;12674;51.500;7.552;2023-04-19T11:19:28;13.00;;;2.38;;
4986;SDS011;12674;51.500;7.552;2023-04-19T11:21:31;12.43;;;2.95;;
4986;SDS011;12674;51.500;7.552;2023-04-19T11:23:34;10.77;;;3.20;;
4986;SDS011;12674;51.500;7.552;2023-04-19T11:25:39;6.32;;;2.80;;
4986;SDS011;12674;51.500;7.552;2023-04-19T11:27:42;11.73;;;2.83;;
4986;SDS011;12674;51.500;7.552;2023-04-19T11:29:46;4.95;;;2.70;;
4986;SDS011;12674;51.500;7.552;2023-04-19T11:31:49;13.27;;;2.70;;
4986;SDS011;12674;51.500;7.552;2023-04-19T11:33:53;29.75;;;3.58;;
4986;SDS011;12674;51.500;7.552;2023-04-19T11:35:56;121.00;;;9.23;;
4986;SDS011;12674;51.500;7.552;2023-04-19T11:37:59;37.38;;;3.92;;
4986;SDS011;12674;51.500;7.552;2023-04-19T11:40:02;19.08;;;3.70;;
4986;SDS011;12674;51.500;7.552;2023-04-19T11:42:12;35.35;;;4.20;;
4986;SDS011;12674;51.500;7.552;2023-04-19T11:44:18;19.90;;;4.28;;
4986;SDS011;12674;51.500;7.552;2023-04-19T11:46:22;10.80;;;3.20;;
4986;SDS011;12674;51.500;7.552;2023-04-19T11:48:25;13.45;;;2.60;;
4986;SDS011;12674;51.500;7.552;2023-04-19T11:50:31;22.83;;;3.70;;
4986;SDS011;12674;51.500;7.552;2023-04-19T11:52:36;76.13;;;5.35;;
4986;SDS011;12674;51.500;7.552;2023-04-19T11:54:39;20.88;;;3.17;;
4986;SDS011;12674;51.500;7.552;2023-04-19T11:56:58;11.95;;;2.67;;
4986;SDS011;12674;51.500;7.552;2023-04-19T11:59:03;27.52;;;4.10;;
4986;SDS011;12674;51.500;7.552;2023-04-19T12:01:11;8.57;;;2.70;;
4986;SDS011;12674;51.500;7.552;2023-04-19T12:03:15;6.80;;;3.03;;
4986;SDS011;12674;51.500;7.552;2023-04-19T12:05:19;3.70;;;3.00;;
4986;SDS011;12674;51.500;7.552;2023-04-19T12:07:22;4.53;;;2.60;;
4986;SDS011;12674;51.500;7.552;2023-04-19T12:09:25;3.55;;;2.70;;
4986;SDS011;12674;51.500;7.552;2023-04-19T12:11:40;4.95;;;2.97;;
4986;SDS011;12674;51.500;7.552;2023-04-19T12:13:44;7.03;;;3.25;;
4986;SDS011;12674;51.500;7.552;2023-04-19T12:15:50;7.10;;;3.10;;
4986;SDS011;12674;51.500;7.552;2023-04-19T12:17:55;8.50;;;2.90;;
4986;SDS011;12674;51.500;7.552;2023-04-19T12:19:58;8.40;;;3.53;;
4986;SDS011;12674;51.500;7.552;2023-04-19T12:22:07;12.55;;;3.60;;
4986;SDS011;12674;51.500;7.552;2023-04-19T12:24:13;4.20;;;2.58;;
4986;SDS011;12674;51.500;7.552;2023-04-19T12:26:16;8.50;;;3.28;;
4986;SDS011;12674;51.500;7.552;2023-04-19T12:28:21;6.80;;;3.20;;
4986;SDS011;12674;51.500;7.552;2023-04-19T12:30:24;4.82;;;2.80;;
4986;SDS011;12674;51.500;7.552;2023-04-19T12:32:29;4.70;;;2.47;;
4986;SDS011;12674;51.500;7.552;2023-04-19T12:34:33;9.68;;;2.90;;
4986;SDS011;12674;51.500;7.552;2023-04-19T12:36:36;7.22;;;2.47;;
4986;SDS011;12674;51.500;7.552;2023-04-19T12:38:39;3.55;;;2.60;;
4986;SDS011;12674;51.500;7.552;2023-04-19T12:40:42;4.22;;;2.60;;
4986;SDS011;12674;51.500;7.552;2023-04-19T12:42:46;3.30;;;2.60;;
4986;SDS011;12674;51.500;7.552;2023-04-19T12:44:49;16.23;;;2.92;;
4986;SDS011;12674;51.500;7.552;2023-04-19T12:46:53;5.60;;;2.90;;